createdAt,value
2019-02-10T00:01:50.931Z,12.07
2019-02-10T00:04:20.283Z,8.60
2019-02-10T00:06:49.606Z,8.07
2019-02-10T00:09:18.911Z,4.30
2019-02-10T00:11:48.260Z,9.80
2019-02-10T00:14:17.667Z,8.47
2019-02-10T00:16:46.947Z,10.67
2019-02-10T00:19:16.263Z,9.37
2019-02-10T00:21:45.539Z,6.10
2019-02-10T00:24:14.806Z,6.67
2019-02-10T00:26:44.134Z,10.60
2019-02-10T00:29:13.366Z,8.40
2019-02-10T00:31:42.618Z,9.70
2019-02-10T00:34:11.902Z,9.23
2019-02-10T00:36:41.154Z,9.57
2019-02-10T00:39:10.430Z,9.33
2019-02-10T00:41:39.738Z,7.33
2019-02-10T00:44:09.058Z,7.80
2019-02-10T00:46:38.270Z,8.50
2019-02-10T00:49:07.554Z,6.57
2019-02-10T00:51:36.814Z,8.83
2019-02-10T00:54:06.136Z,10.63
2019-02-10T00:56:35.434Z,7.33
2019-02-10T00:59:04.602Z,8.57
2019-02-10T01:01:33.890Z,10.47
2019-02-10T01:04:03.350Z,9.47
2019-02-10T01:06:40.824Z,6.70
2019-02-10T01:09:04.815Z,11.00
2019-02-10T01:11:34.194Z,13.67
2019-02-10T01:14:03.542Z,8.20
2019-02-10T01:16:32.990Z,9.73
2019-02-10T01:19:04.925Z,4.73
2019-02-10T01:21:34.240Z,9.23
2019-02-10T01:24:03.533Z,9.90
2019-02-10T01:26:32.874Z,10.50
2019-02-10T01:29:02.193Z,7.23
2019-02-10T01:31:31.538Z,8.27
2019-02-10T01:34:00.827Z,8.90
2019-02-10T01:36:30.101Z,7.30
2019-02-10T01:38:59.434Z,7.80
2019-02-10T01:41:28.797Z,6.80
2019-02-10T01:43:58.106Z,7.53
2019-02-10T01:46:27.437Z,7.00
2019-02-10T01:48:56.739Z,13.50
2019-02-10T01:51:26.006Z,9.13
2019-02-10T01:53:56.141Z,10.07
2019-02-10T01:56:25.342Z,7.97
2019-02-10T01:58:54.599Z,14.10
2019-02-10T02:01:23.843Z,8.37
2019-02-10T02:03:53.118Z,11.17
2019-02-10T02:06:22.479Z,7.10
2019-02-10T02:08:52.123Z,7.60
2019-02-10T02:11:21.374Z,8.80
2019-02-10T02:13:50.770Z,6.27
2019-02-10T02:16:20.467Z,9.83
2019-02-10T02:18:49.767Z,5.33
2019-02-10T02:21:19.100Z,7.27
2019-02-10T02:23:48.359Z,6.53
2019-02-10T02:26:17.643Z,9.67
2019-02-10T02:28:46.874Z,10.40
2019-02-10T02:31:16.113Z,6.37
2019-02-10T02:33:45.390Z,9.00
2019-02-10T02:36:14.579Z,15.73
2019-02-10T02:38:43.863Z,9.93
2019-02-10T02:41:13.161Z,5.53
2019-02-10T02:43:42.484Z,7.07
2019-02-10T02:46:11.765Z,9.60
2019-02-10T02:48:41.045Z,8.43
2019-02-10T02:51:10.398Z,8.10
2019-02-10T02:53:39.656Z,7.37
2019-02-10T02:56:08.949Z,9.80
2019-02-10T02:58:38.272Z,7.97
2019-02-10T03:01:07.656Z,5.83
2019-02-10T03:03:36.932Z,14.17
2019-02-10T03:06:06.217Z,8.17
2019-02-10T03:08:35.500Z,7.60
2019-02-10T03:11:04.845Z,10.63
2019-02-10T03:13:34.116Z,7.00
2019-02-10T03:16:03.440Z,9.13
2019-02-10T03:18:32.712Z,6.77
2019-02-10T03:21:02.002Z,39.97
2019-02-10T03:23:31.368Z,11.00
2019-02-10T03:26:00.660Z,8.33
2019-02-10T03:28:29.958Z,7.00
2019-02-10T03:30:59.323Z,7.57
2019-02-10T03:33:28.565Z,6.73
2019-02-10T03:35:57.864Z,10.53
2019-02-10T03:38:27.116Z,10.20
2019-02-10T03:40:56.436Z,6.27
2019-02-10T03:43:25.745Z,7.47
2019-02-10T03:45:55.012Z,7.23
2019-02-10T03:48:24.343Z,8.47
2019-02-10T03:50:53.676Z,12.13
2019-02-10T03:53:23.003Z,12.60
2019-02-10T03:55:52.260Z,11.27
2019-02-10T03:58:21.512Z,9.53
2019-02-10T04:00:50.895Z,7.83
2019-02-10T04:03:20.211Z,7.03
2019-02-10T04:05:49.501Z,14.00
2019-02-10T04:08:18.792Z,12.20
2019-02-10T04:10:48.084Z,10.40
2019-02-10T04:13:17.418Z,11.63
2019-02-10T04:15:46.783Z,10.20
2019-02-10T04:18:16.187Z,13.97
2019-02-10T04:20:45.583Z,7.80
2019-02-10T04:23:15.134Z,10.77
2019-02-10T04:25:44.427Z,8.50
2019-02-10T04:28:13.658Z,8.23
2019-02-10T04:30:42.964Z,13.00
2019-02-10T04:33:12.579Z,11.50
2019-02-10T04:35:41.861Z,6.37
2019-02-10T04:38:11.147Z,6.27
2019-02-10T04:40:40.424Z,11.90
2019-02-10T04:43:09.723Z,8.93
2019-02-10T04:45:39.002Z,5.57
2019-02-10T04:48:08.282Z,7.93
2019-02-10T04:50:37.539Z,8.63
2019-02-10T04:53:06.833Z,10.10
2019-02-10T04:55:36.072Z,7.07
2019-02-10T04:58:05.342Z,8.77
2019-02-10T05:00:34.571Z,8.93
2019-02-10T05:03:03.866Z,7.03
2019-02-10T05:05:33.114Z,9.23
2019-02-10T05:08:02.387Z,8.67
2019-02-10T05:10:31.652Z,7.37
2019-02-10T05:13:00.934Z,9.33
2019-02-10T05:15:30.243Z,10.73
2019-02-10T05:17:59.622Z,10.57
2019-02-10T05:20:28.980Z,7.03
2019-02-10T05:22:58.218Z,8.47
2019-02-10T05:25:27.558Z,7.37
2019-02-10T05:27:56.918Z,12.67
2019-02-10T05:30:27.077Z,6.30
2019-02-10T05:32:56.346Z,9.20
2019-02-10T05:35:25.585Z,111.33
2019-02-10T05:38:03.594Z,6.47
2019-02-10T05:40:25.826Z,58.90
2019-02-10T05:42:55.170Z,9.37
2019-02-10T05:45:24.530Z,11.10
2019-02-10T05:47:53.851Z,20.30
2019-02-10T05:50:23.147Z,15.40
2019-02-10T05:52:52.415Z,10.17
2019-02-10T05:55:21.737Z,13.03
2019-02-10T05:57:51.041Z,7.90
2019-02-10T06:00:20.665Z,9.27
2019-02-10T06:02:49.954Z,11.70
2019-02-10T06:05:21.489Z,9.97
2019-02-10T06:07:50.770Z,7.27
2019-02-10T06:10:20.069Z,9.63
2019-02-10T06:12:49.465Z,7.53
2019-02-10T06:15:18.738Z,6.87
2019-02-10T06:17:48.013Z,31.23
2019-02-10T06:20:17.411Z,12.63
2019-02-10T06:22:46.773Z,26.73
2019-02-10T06:25:16.090Z,20.47
2019-02-10T06:27:45.373Z,24.20
2019-02-10T06:30:14.661Z,33.07
2019-02-10T06:32:43.901Z,94.47
2019-02-10T06:35:13.165Z,169.50
2019-02-10T06:37:42.465Z,135.33
2019-02-10T06:40:12.442Z,178.70
2019-02-10T06:42:41.685Z,93.17
2019-02-10T06:45:12.897Z,25.77
2019-02-10T06:47:42.837Z,27.70
2019-02-10T06:50:12.264Z,31.20
2019-02-10T06:52:41.544Z,32.33
2019-02-10T06:55:12.440Z,29.63
2019-02-10T06:57:41.644Z,36.93
2019-02-10T07:00:33.436Z,18.47
2019-02-10T07:03:38.012Z,19.10
2019-02-10T07:06:07.983Z,24.23
2019-02-10T07:08:37.273Z,18.47
2019-02-10T07:11:06.521Z,17.57
2019-02-10T07:13:41.196Z,78.30
2019-02-10T07:16:47.656Z,24.23
2019-02-10T07:19:52.660Z,28.80
2019-02-10T07:23:02.113Z,17.77
2019-02-10T07:25:46.076Z,13.93
2019-02-10T07:28:51.070Z,15.30
2019-02-10T07:31:25.845Z,18.87
2019-02-10T07:34:37.777Z,16.13
2019-02-10T07:37:33.964Z,17.17
2019-02-10T07:40:50.268Z,19.67
2019-02-10T07:43:39.852Z,48.93
2019-02-10T07:47:02.607Z,22.17
2019-02-10T07:50:10.480Z,20.00
2019-02-10T07:53:08.207Z,26.10
2019-02-10T07:56:08.660Z,30.63
2019-02-10T07:59:14.803Z,50.83
2019-02-10T08:02:27.268Z,14.43
2019-02-10T08:05:59.852Z,27.20
2019-02-10T08:08:59.291Z,52.33
2019-02-10T08:12:34.075Z,26.20
2019-02-10T08:15:25.477Z,12.93
2019-02-10T08:18:19.333Z,59.20
2019-02-10T08:21:31.771Z,27.60
2019-02-10T08:24:17.354Z,18.60
2019-02-10T08:27:06.767Z,16.27
2019-02-10T08:29:42.780Z,135.10
2019-02-10T08:32:42.579Z,16.77
2019-02-10T08:36:04.907Z,76.87
2019-02-10T08:38:55.235Z,21.03
2019-02-10T08:42:05.650Z,20.47
2019-02-10T08:45:14.166Z,92.00
2019-02-10T08:48:13.236Z,47.70
2019-02-10T08:51:13.487Z,28.77
2019-02-10T08:53:45.092Z,43.57
2019-02-10T08:56:14.530Z,35.20
2019-02-10T08:58:43.816Z,60.60
2019-02-10T09:01:13.277Z,23.30
2019-02-10T09:03:42.641Z,22.10
2019-02-10T09:06:11.940Z,26.03
2019-02-10T09:08:41.212Z,48.43
2019-02-10T09:11:10.626Z,49.27
2019-02-10T09:13:39.925Z,54.87
2019-02-10T09:16:09.307Z,45.77
2019-02-10T09:18:38.673Z,37.27
2019-02-10T09:21:08.032Z,30.57
2019-02-10T09:23:37.356Z,33.50
2019-02-10T09:26:06.647Z,15.33
2019-02-10T09:28:35.895Z,32.27
2019-02-10T09:31:05.263Z,20.97
2019-02-10T09:33:34.775Z,24.30
2019-02-10T09:36:04.093Z,28.83
2019-02-10T09:38:33.414Z,21.93
2019-02-10T09:41:02.793Z,21.80
2019-02-10T09:43:32.116Z,52.37
2019-02-10T09:46:01.399Z,38.33
2019-02-10T09:48:30.720Z,21.63
2019-02-10T09:51:00.120Z,15.83
2019-02-10T09:53:29.429Z,22.90
2019-02-10T09:55:58.748Z,14.80
2019-02-10T09:58:28.008Z,19.43
2019-02-10T10:00:57.296Z,23.70
2019-02-10T10:03:26.735Z,23.30
2019-02-10T10:05:56.005Z,28.33
2019-02-10T10:08:25.288Z,25.73
2019-02-10T10:10:54.582Z,17.67
2019-02-10T10:13:24.225Z,34.00
2019-02-10T10:15:53.463Z,19.50
2019-02-10T10:18:22.791Z,20.20
2019-02-10T10:20:52.287Z,20.57
2019-02-10T10:23:21.767Z,22.17
2019-02-10T10:25:51.092Z,19.97
2019-02-10T10:28:20.423Z,28.20
2019-02-10T10:30:49.683Z,31.37
2019-02-10T10:33:19.251Z,21.87
2019-02-10T10:35:48.528Z,20.50
2019-02-10T10:38:17.839Z,29.80
2019-02-10T10:40:47.123Z,31.87
2019-02-10T10:43:16.419Z,30.60
2019-02-10T10:45:45.683Z,23.73
2019-02-10T10:48:14.995Z,23.60
2019-02-10T10:50:44.323Z,23.40
2019-02-10T10:53:13.697Z,28.70
2019-02-10T10:55:42.955Z,20.37
2019-02-10T10:58:12.270Z,26.37
2019-02-10T11:00:41.571Z,21.87
2019-02-10T11:03:10.811Z,17.03
2019-02-10T11:05:40.095Z,38.70
2019-02-10T11:08:09.387Z,36.77
2019-02-10T11:10:39.636Z,47.27
2019-02-10T11:13:08.999Z,58.47
2019-02-10T11:15:38.277Z,44.03
2019-02-10T11:18:07.571Z,44.57
2019-02-10T11:20:36.930Z,47.33
2019-02-10T11:23:06.185Z,31.60
2019-02-10T11:25:35.430Z,18.90
2019-02-10T11:28:04.860Z,37.10
2019-02-10T11:30:34.126Z,32.07
2019-02-10T11:33:03.401Z,42.90
2019-02-10T11:35:32.638Z,103.03
2019-02-10T11:38:02.021Z,149.47
2019-02-10T11:40:31.262Z,43.30
2019-02-10T11:43:00.563Z,18.27
2019-02-10T11:45:31.698Z,21.67
2019-02-10T11:48:00.989Z,36.60
2019-02-10T11:50:30.286Z,29.00
2019-02-10T11:52:59.544Z,49.90
2019-02-10T11:55:28.855Z,31.77
2019-02-10T11:57:58.106Z,29.23
2019-02-10T12:00:27.398Z,26.43
2019-02-10T12:02:56.670Z,16.40
2019-02-10T12:05:25.915Z,23.20
2019-02-10T12:07:55.194Z,24.23
2019-02-10T12:10:24.398Z,38.20
2019-02-10T12:12:53.646Z,44.47
2019-02-10T12:15:22.926Z,21.87
2019-02-10T12:17:52.170Z,21.47
2019-02-10T12:20:21.470Z,22.03
2019-02-10T12:22:50.748Z,20.77
2019-02-10T12:25:20.022Z,27.50
2019-02-10T12:27:49.282Z,34.63
2019-02-10T12:30:18.654Z,21.37
2019-02-10T12:32:47.953Z,25.90
2019-02-10T12:35:17.293Z,24.90
2019-02-10T12:37:46.577Z,139.47
2019-02-10T12:40:15.814Z,33.60
2019-02-10T12:42:45.178Z,39.57
2019-02-10T12:45:14.801Z,30.13
2019-02-10T12:47:44.134Z,38.20
2019-02-10T12:50:13.449Z,42.70
2019-02-10T12:52:42.774Z,22.27
2019-02-10T12:55:12.170Z,37.20
2019-02-10T12:57:41.455Z,81.37
2019-02-10T13:00:13.286Z,56.40
2019-02-10T13:02:42.641Z,47.10
2019-02-10T13:05:11.953Z,57.90
2019-02-10T13:07:41.642Z,33.00
2019-02-10T13:10:11.669Z,52.63
2019-02-10T13:12:40.956Z,75.67
2019-02-10T13:15:10.329Z,32.80
2019-02-10T13:17:39.511Z,30.07
2019-02-10T13:20:09.165Z,37.87
2019-02-10T13:22:38.532Z,44.80
2019-02-10T13:25:07.929Z,33.50
2019-02-10T13:27:37.225Z,29.37
2019-02-10T13:30:07.160Z,21.43
2019-02-10T13:32:36.441Z,26.77
2019-02-10T13:35:05.909Z,32.40
2019-02-10T13:37:35.336Z,81.17
2019-02-10T13:40:05.737Z,106.07
2019-02-10T13:42:35.028Z,91.73
2019-02-10T13:45:05.016Z,113.00
2019-02-10T13:47:34.340Z,105.20
2019-02-10T13:50:03.640Z,93.80
2019-02-10T13:52:33.264Z,100.40
2019-02-10T13:55:02.604Z,48.60
2019-02-10T13:57:32.949Z,70.60
2019-02-10T14:00:02.317Z,52.30
2019-02-10T14:02:31.916Z,65.67
2019-02-10T14:05:01.222Z,39.13
2019-02-10T14:07:30.559Z,74.47
2019-02-10T14:09:59.904Z,38.70
2019-02-10T14:12:30.907Z,45.57
2019-02-10T14:15:00.336Z,37.30
2019-02-10T14:17:29.696Z,41.37
2019-02-10T14:19:58.982Z,41.07
2019-02-10T14:22:28.340Z,45.00
2019-02-10T14:24:57.635Z,53.70
2019-02-10T14:27:27.011Z,53.50
2019-02-10T14:29:56.372Z,56.90
2019-02-10T14:32:25.640Z,44.30
2019-02-10T14:34:54.936Z,37.57
2019-02-10T14:37:24.195Z,49.47
2019-02-10T14:39:53.504Z,49.37
2019-02-10T14:42:22.815Z,61.00
2019-02-10T14:44:52.082Z,28.17
2019-02-10T14:47:21.391Z,48.93
2019-02-10T14:49:50.773Z,45.77
2019-02-10T14:52:20.035Z,47.50
2019-02-10T14:54:49.401Z,57.77
2019-02-10T14:57:18.705Z,72.03
2019-02-10T14:59:47.975Z,62.90
2019-02-10T15:02:17.284Z,46.97
2019-02-10T15:04:46.648Z,36.77
2019-02-10T15:07:17.575Z,47.07
2019-02-10T15:09:46.861Z,138.40
2019-02-10T15:12:16.192Z,59.03
2019-02-10T15:14:45.503Z,91.83
2019-02-10T15:17:14.800Z,172.97
2019-02-10T15:19:44.084Z,148.17
2019-02-10T15:22:13.377Z,74.43
2019-02-10T15:24:42.692Z,70.73
2019-02-10T15:27:11.969Z,89.17
2019-02-10T15:29:41.260Z,77.17
2019-02-10T15:32:16.680Z,74.47
2019-02-10T15:34:41.436Z,69.27
2019-02-10T15:37:10.744Z,74.13
2019-02-10T15:39:40.100Z,44.47
2019-02-10T15:42:09.736Z,78.67
2019-02-10T15:44:39.172Z,179.60
2019-02-10T15:47:08.424Z,135.57
2019-02-10T15:49:37.712Z,75.47
2019-02-10T15:52:07.052Z,49.50
2019-02-10T15:54:36.433Z,43.70
2019-02-10T15:57:05.735Z,44.53
2019-02-10T15:59:35.043Z,46.03
2019-02-10T16:02:04.335Z,40.10
2019-02-10T16:04:33.764Z,53.90
2019-02-10T16:07:03.064Z,51.73
2019-02-10T16:09:32.749Z,62.80
2019-02-10T16:12:01.985Z,46.73
2019-02-10T16:14:31.320Z,56.83
2019-02-10T16:17:00.596Z,226.13
2019-02-10T16:19:30.079Z,93.17
2019-02-10T16:21:59.463Z,59.17
2019-02-10T16:24:28.887Z,66.60
2019-02-10T16:26:58.195Z,72.63
2019-02-10T16:29:27.595Z,49.33
2019-02-10T16:31:56.963Z,42.77
2019-02-10T16:34:26.334Z,33.63
2019-02-10T16:36:55.543Z,114.60
2019-02-10T16:39:24.855Z,302.33
2019-02-10T16:41:54.146Z,334.33
2019-02-10T16:44:23.486Z,56.83
2019-02-10T16:46:52.830Z,197.80
2019-02-10T16:49:22.473Z,234.23
2019-02-10T16:51:52.358Z,202.93
2019-02-10T16:54:21.717Z,146.13
2019-02-10T16:56:50.930Z,94.70
2019-02-10T16:59:20.197Z,82.20
2019-02-10T17:01:49.474Z,66.73
2019-02-10T17:04:18.796Z,125.90
2019-02-10T17:06:48.036Z,121.60
2019-02-10T17:09:17.313Z,130.37
2019-02-10T17:11:46.673Z,93.43
2019-02-10T17:14:17.262Z,102.10
2019-02-10T17:16:46.566Z,115.67
2019-02-10T17:19:15.878Z,124.97
2019-02-10T17:21:45.155Z,150.73
2019-02-10T17:24:14.450Z,112.57
2019-02-10T17:26:43.822Z,143.80
2019-02-10T17:29:13.010Z,100.97
2019-02-10T17:31:42.289Z,91.50
2019-02-10T17:34:11.547Z,108.40
2019-02-10T17:36:40.804Z,168.43
2019-02-10T17:39:14.802Z,128.83
2019-02-10T17:41:46.114Z,121.13
2019-02-10T17:44:15.354Z,144.10
2019-02-10T17:46:44.617Z,95.63
2019-02-10T17:49:14.162Z,118.30
2019-02-10T17:51:43.480Z,77.00
2019-02-10T17:54:12.778Z,172.17
2019-02-10T17:56:42.097Z,128.17
2019-02-10T17:59:11.342Z,87.93
2019-02-10T18:01:40.705Z,148.63
2019-02-10T18:04:09.925Z,97.10
2019-02-10T18:06:39.122Z,122.40
2019-02-10T18:09:09.017Z,96.23
2019-02-10T18:11:38.284Z,249.43
2019-02-10T18:14:22.736Z,127.27
2019-02-10T18:17:26.228Z,114.20
2019-02-10T18:20:04.766Z,125.87
2019-02-10T18:22:58.841Z,102.50
2019-02-10T18:25:49.734Z,92.60
2019-02-10T18:28:30.794Z,83.63
2019-02-10T18:31:17.769Z,68.97
2019-02-10T18:34:06.401Z,70.13
2019-02-10T18:36:42.811Z,65.00
2019-02-10T18:39:22.840Z,61.10
2019-02-10T18:42:21.161Z,73.67
2019-02-10T18:45:00.948Z,88.27
2019-02-10T18:47:39.080Z,64.97
2019-02-10T18:50:46.882Z,73.33
2019-02-10T18:53:26.264Z,78.03
2019-02-10T18:56:08.041Z,87.50
2019-02-10T18:59:14.733Z,61.97
2019-02-10T19:02:09.022Z,86.33
2019-02-10T19:04:58.908Z,112.53
2019-02-10T19:07:34.880Z,79.47
2019-02-10T19:10:11.744Z,223.40
2019-02-10T19:12:51.400Z,265.47
2019-02-10T19:15:46.860Z,90.60
2019-02-10T19:18:44.172Z,127.97
2019-02-10T19:21:31.092Z,142.13
2019-02-10T19:24:24.904Z,187.10
2019-02-10T19:27:22.040Z,109.90
2019-02-10T19:30:19.360Z,156.97
2019-02-10T19:32:58.600Z,151.53
2019-02-10T19:35:53.917Z,145.20
2019-02-10T19:38:35.359Z,130.23
2019-02-10T19:41:12.973Z,79.93
2019-02-10T19:43:53.448Z,106.60
2019-02-10T19:46:38.188Z,86.97
2019-02-10T19:49:25.232Z,102.73
2019-02-10T19:52:04.331Z,164.20
2019-02-10T19:54:48.031Z,127.97
2019-02-10T19:57:38.020Z,111.20
2019-02-10T20:00:32.231Z,114.47
2019-02-10T20:03:23.258Z,102.23
2019-02-10T20:06:10.378Z,97.80
2019-02-10T20:08:58.715Z,187.97
2019-02-10T20:12:05.407Z,173.40
2019-02-10T20:14:56.547Z,158.17
2019-02-10T20:17:45.294Z,149.27
2019-02-10T20:20:39.615Z,106.53
2019-02-10T20:23:33.941Z,89.30
2019-02-10T20:26:20.735Z,93.07
2019-02-10T20:29:15.091Z,68.10
2019-02-10T20:31:57.703Z,100.77
2019-02-10T20:34:40.519Z,78.87
2019-02-10T20:37:28.842Z,72.53
2019-02-10T20:40:16.122Z,88.70
2019-02-10T20:43:04.295Z,62.13
2019-02-10T20:45:51.122Z,79.20
2019-02-10T20:48:29.946Z,100.80
2019-02-10T20:51:18.063Z,96.23
2019-02-10T20:54:09.086Z,142.03
2019-02-10T20:56:45.518Z,58.40
2019-02-10T20:59:40.594Z,58.70
2019-02-10T21:02:20.066Z,66.20
2019-02-10T21:04:55.626Z,130.80
2019-02-10T21:07:34.749Z,83.33
2019-02-10T21:10:22.227Z,74.13
2019-02-10T21:13:18.989Z,89.03
2019-02-10T21:16:02.387Z,117.03
2019-02-10T21:18:49.642Z,138.13
2019-02-10T21:21:28.817Z,83.50
2019-02-10T21:24:23.534Z,71.87
2019-02-10T21:27:08.274Z,97.60
2019-02-10T21:30:08.418Z,68.43
2019-02-10T21:32:50.778Z,106.90
2019-02-10T21:35:29.833Z,82.30
2019-02-10T21:38:27.193Z,66.37
2019-02-10T21:41:11.909Z,65.07
2019-02-10T21:44:09.157Z,57.33
2019-02-10T21:46:51.773Z,78.37
2019-02-10T21:49:23.129Z,50.63
2019-02-10T21:51:52.456Z,49.60
2019-02-10T21:54:21.801Z,62.90
2019-02-10T21:56:51.043Z,52.23
2019-02-10T21:59:20.321Z,57.30
2019-02-10T22:01:53.659Z,60.03
2019-02-10T22:04:20.713Z,51.87
2019-02-10T22:06:50.054Z,55.83
2019-02-10T22:09:19.309Z,54.07
2019-02-10T22:11:48.613Z,53.30
2019-02-10T22:14:18.292Z,57.07
2019-02-10T22:16:47.678Z,44.73
2019-02-10T22:19:17.000Z,59.27
2019-02-10T22:21:46.288Z,46.73
2019-02-10T22:24:15.525Z,56.83
2019-02-10T22:26:44.848Z,51.00
2019-02-10T22:29:14.327Z,59.77
2019-02-10T22:31:43.611Z,61.60
2019-02-10T22:34:12.896Z,72.93
2019-02-10T22:36:42.263Z,51.40
2019-02-10T22:39:11.501Z,48.37
2019-02-10T22:41:42.541Z,49.27
2019-02-10T22:44:11.788Z,62.17
2019-02-10T22:46:41.131Z,43.10
2019-02-10T22:49:10.935Z,44.00
2019-02-10T22:51:40.241Z,48.30
2019-02-10T22:54:09.503Z,48.03
2019-02-10T22:56:38.862Z,43.17
2019-02-10T22:59:08.201Z,51.27
2019-02-10T23:01:37.446Z,48.03
2019-02-10T23:04:06.743Z,41.47
2019-02-10T23:06:35.995Z,47.67
2019-02-10T23:09:10.747Z,46.80
2019-02-10T23:11:40.151Z,46.07
2019-02-10T23:14:09.413Z,54.87
2019-02-10T23:16:38.699Z,43.50
2019-02-10T23:19:07.971Z,39.50
2019-02-10T23:21:37.246Z,43.03
2019-02-10T23:24:06.487Z,45.63
2019-02-10T23:26:35.817Z,46.97
2019-02-10T23:29:05.144Z,44.50
2019-02-10T23:31:34.467Z,46.80
2019-02-10T23:34:03.880Z,62.43
2019-02-10T23:36:33.148Z,48.13
2019-02-10T23:39:02.411Z,42.00
2019-02-10T23:41:31.693Z,43.27
2019-02-10T23:44:00.944Z,42.23
2019-02-10T23:46:30.218Z,42.80
2019-02-10T23:48:59.558Z,34.73
2019-02-10T23:51:28.785Z,44.17
2019-02-10T23:53:58.137Z,42.80
2019-02-10T23:56:27.407Z,41.47
2019-02-10T23:58:56.750Z,43.37
